createdAt,value
2018-09-01T00:01:06.819Z,91.02
2018-09-01T00:03:35.834Z,91.04
2018-09-01T00:06:04.852Z,90.99
2018-09-01T00:08:34.591Z,91.20
2018-09-01T00:11:03.993Z,91.72
2018-09-01T00:13:33.165Z,91.75
2018-09-01T00:16:02.269Z,92.11
2018-09-01T00:18:31.719Z,92.42
2018-09-01T00:21:01.963Z,92.86
2018-09-01T00:23:30.706Z,93.18
2018-09-01T00:26:00.005Z,93.05
2018-09-01T00:28:28.737Z,92.99
2018-09-01T00:30:57.664Z,93.10
2018-09-01T00:33:26.443Z,93.17
2018-09-01T00:35:55.744Z,93.06
2018-09-01T00:38:29.738Z,92.79
2018-09-01T00:40:58.536Z,92.93
2018-09-01T00:43:27.948Z,93.28
2018-09-01T00:45:56.748Z,93.31
2018-09-01T00:48:25.499Z,93.21
2018-09-01T00:50:54.393Z,93.09
2018-09-01T00:53:23.111Z,93.11
2018-09-01T00:55:55.090Z,93.29
2018-09-01T00:58:25.209Z,93.11
2018-09-01T01:00:55.367Z,92.75
2018-09-01T01:03:25.216Z,93.07
2018-09-01T01:05:54.641Z,92.85
2018-09-01T01:08:24.879Z,93.27
2018-09-01T01:10:53.889Z,92.84
2018-09-01T01:13:22.931Z,92.90
2018-09-01T01:18:42.056Z,92.98
2018-09-01T01:21:10.892Z,92.81
2018-09-01T01:23:39.685Z,92.89
2018-09-01T01:26:09.540Z,92.88
2018-09-01T01:28:38.344Z,92.81
2018-09-01T01:31:07.781Z,92.86
2018-09-01T01:33:36.914Z,93.02
2018-09-01T01:36:05.703Z,92.74
2018-09-01T01:38:34.429Z,92.68
2018-09-01T01:41:03.466Z,92.60
2018-09-01T01:43:32.686Z,92.78
2018-09-01T01:46:01.455Z,92.56
2018-09-01T01:48:30.758Z,92.47
2018-09-01T01:50:59.530Z,92.74
2018-09-01T01:53:28.293Z,92.75
2018-09-01T01:55:57.347Z,92.82
2018-09-01T01:58:26.386Z,92.77
2018-09-01T02:00:55.421Z,93.29
2018-09-01T02:03:24.652Z,93.33
2018-09-01T02:05:53.627Z,93.32
2018-09-01T02:08:22.422Z,93.29
2018-09-01T02:10:51.224Z,93.38
2018-09-01T02:13:19.974Z,93.33
2018-09-01T02:15:48.801Z,93.57
2018-09-01T02:18:17.831Z,93.33
2018-09-01T02:20:46.876Z,93.52
2018-09-01T02:23:15.641Z,93.65
2018-09-01T02:25:44.653Z,93.83
2018-09-01T02:28:13.699Z,93.67
2018-09-01T02:30:42.447Z,93.76
2018-09-01T02:33:11.551Z,93.72
2018-09-01T02:35:40.527Z,93.66
2018-09-01T02:38:09.830Z,94.00
2018-09-01T02:40:38.668Z,94.24
2018-09-01T02:43:07.716Z,94.58
2018-09-01T02:45:36.766Z,94.80
2018-09-01T02:48:05.795Z,94.80
2018-09-01T02:50:34.569Z,94.59
2018-09-01T02:53:03.676Z,94.67
2018-09-01T02:55:32.432Z,94.62
2018-09-01T02:58:01.190Z,94.32
2018-09-01T03:00:35.969Z,94.32
2018-09-01T03:03:04.761Z,94.13
2018-09-01T03:05:33.516Z,94.41
2018-09-01T03:08:02.912Z,94.28
2018-09-01T03:10:31.701Z,94.12
2018-09-01T03:13:00.757Z,93.99
2018-09-01T03:15:30.115Z,93.94
2018-09-01T03:17:59.433Z,94.10
2018-09-01T03:20:28.243Z,93.88
2018-09-01T03:22:57.006Z,93.98
2018-09-01T03:25:26.343Z,94.05
2018-09-01T03:27:55.115Z,93.91
2018-09-01T03:30:24.016Z,94.16
2018-09-01T03:32:53.161Z,94.32
2018-09-01T03:35:22.169Z,94.37
2018-09-01T03:37:51.514Z,94.30
2018-09-01T03:40:20.595Z,94.64
2018-09-01T03:42:50.027Z,94.45
2018-09-01T03:45:19.200Z,94.64
2018-09-01T03:47:48.002Z,94.62
2018-09-01T03:50:16.796Z,94.53
2018-09-01T03:52:46.369Z,94.51
2018-09-01T03:55:15.802Z,94.73
2018-09-01T03:57:45.543Z,94.63
2018-09-01T04:00:14.653Z,94.88
2018-09-01T04:02:43.538Z,94.74
2018-09-01T04:05:12.297Z,94.72
2018-09-01T04:07:41.448Z,94.98
2018-09-01T04:10:10.696Z,94.83
2018-09-01T04:12:40.451Z,94.76
2018-09-01T04:15:09.571Z,94.69
2018-09-01T04:17:38.605Z,94.89
2018-09-01T04:20:07.354Z,94.90
2018-09-01T04:22:36.487Z,94.86
2018-09-01T04:25:05.297Z,94.89
2018-09-01T04:27:34.063Z,94.92
2018-09-01T04:30:03.152Z,95.08
2018-09-01T04:32:32.204Z,95.01
2018-09-01T04:35:01.409Z,95.02
2018-09-01T04:37:30.239Z,95.06
2018-09-01T04:39:59.003Z,95.18
2018-09-01T04:42:27.783Z,95.18
2018-09-01T04:44:57.039Z,95.32
2018-09-01T04:47:26.058Z,95.30
2018-09-01T04:49:55.225Z,95.48
2018-09-01T04:52:23.995Z,95.91
2018-09-01T04:54:53.503Z,96.19
2018-09-01T04:57:22.306Z,96.44
2018-09-01T04:59:51.394Z,96.72
2018-09-01T05:02:20.135Z,96.87
2018-09-01T05:04:48.990Z,96.79
2018-09-01T05:07:18.353Z,97.09
2018-09-01T05:09:47.755Z,97.13
2018-09-01T05:12:16.498Z,97.06
2018-09-01T05:14:46.614Z,96.92
2018-09-01T05:17:16.099Z,97.21
2018-09-01T05:19:45.656Z,97.44
2018-09-01T05:22:14.461Z,97.63
2018-09-01T05:24:43.236Z,98.01
2018-09-01T05:27:12.376Z,98.84
2018-09-01T05:29:41.165Z,99.19
2018-09-01T05:32:10.448Z,99.29
2018-09-01T05:34:39.231Z,99.42
2018-09-01T05:37:08.329Z,99.46
2018-09-01T05:39:37.122Z,99.61
2018-09-01T05:42:06.231Z,99.96
2018-09-01T05:44:35.604Z,100.00
2018-09-01T05:47:04.595Z,100.00
2018-09-01T05:49:33.805Z,100.00
2018-09-01T05:52:02.687Z,100.00
2018-09-01T05:54:32.148Z,100.00
2018-09-01T05:57:01.672Z,100.00
2018-09-01T05:59:30.452Z,100.00
2018-09-01T06:01:59.239Z,100.00
2018-09-01T06:04:28.219Z,100.00
2018-09-01T06:06:57.040Z,100.00
2018-09-01T06:09:25.812Z,100.00
2018-09-01T06:11:54.533Z,100.00
2018-09-01T06:14:23.990Z,100.00
2018-09-01T06:16:52.811Z,100.00
2018-09-01T06:19:21.884Z,100.00
2018-09-01T06:21:51.269Z,100.00
2018-09-01T06:24:20.640Z,100.00
2018-09-01T06:26:49.502Z,100.00
2018-09-01T06:29:19.597Z,100.00
2018-09-01T06:31:53.757Z,100.00
2018-09-01T06:34:22.899Z,100.00
2018-09-01T06:36:51.926Z,100.00
2018-09-01T06:39:21.037Z,100.00
2018-09-01T06:41:51.136Z,100.00
2018-09-01T06:44:20.875Z,100.00
2018-09-01T06:46:49.882Z,100.00
2018-09-01T06:49:19.369Z,100.00
2018-09-01T06:51:48.836Z,100.00
2018-09-01T06:54:17.628Z,100.00
2018-09-01T06:56:46.438Z,100.00
2018-09-01T06:59:15.189Z,100.00
2018-09-01T07:01:44.563Z,100.00
2018-09-01T07:04:13.663Z,100.00
2018-09-01T07:06:43.097Z,100.00
2018-09-01T07:09:11.856Z,100.00
2018-09-01T07:11:40.866Z,100.00
2018-09-01T07:14:09.645Z,100.00
2018-09-01T07:16:38.369Z,100.00
2018-09-01T07:19:07.350Z,100.00
2018-09-01T07:21:36.196Z,100.00
2018-09-01T07:24:04.933Z,100.00
2018-09-01T07:26:34.293Z,100.00
2018-09-01T07:29:03.078Z,100.00
2018-09-01T07:31:32.423Z,100.00
2018-09-01T07:34:01.201Z,100.00
2018-09-01T07:36:30.263Z,100.00
2018-09-01T07:38:59.257Z,100.00
2018-09-01T07:41:28.404Z,100.00
2018-09-01T07:43:57.434Z,100.00
2018-09-01T07:46:26.202Z,100.00
2018-09-01T07:48:55.359Z,100.00
2018-09-01T07:51:24.433Z,100.00
2018-09-01T07:53:53.223Z,98.36
2018-09-01T07:56:21.963Z,98.25
2018-09-01T07:58:50.719Z,97.79
2018-09-01T08:01:19.913Z,96.53
2018-09-01T08:03:48.996Z,96.24
2018-09-01T08:06:17.743Z,94.98
2018-09-01T08:08:46.533Z,92.23
2018-09-01T08:11:15.542Z,91.99
2018-09-01T08:13:44.854Z,91.09
2018-09-01T08:16:14.050Z,91.07
2018-09-01T08:18:43.161Z,89.85
2018-09-01T08:21:12.282Z,87.06
2018-09-01T08:23:41.197Z,87.45
2018-09-01T08:26:10.077Z,86.88
2018-09-01T08:28:38.810Z,84.32
2018-09-01T08:31:07.587Z,83.90
2018-09-01T08:33:36.387Z,83.69
2018-09-01T08:36:05.197Z,82.84
2018-09-01T08:38:34.535Z,81.20
2018-09-01T08:41:03.605Z,79.25
2018-09-01T08:43:32.368Z,79.50
2018-09-01T08:46:01.194Z,80.28
2018-09-01T08:48:30.184Z,75.01
2018-09-01T08:50:59.246Z,72.94
2018-09-01T08:53:28.627Z,73.90
2018-09-01T08:55:57.594Z,71.18
2018-09-01T08:58:27.344Z,72.38
2018-09-01T09:00:56.071Z,72.13
2018-09-01T09:03:25.202Z,69.44
2018-09-01T09:05:54.275Z,67.78
2018-09-01T09:08:23.009Z,66.96
2018-09-01T09:10:51.994Z,66.14
2018-09-01T09:13:21.319Z,65.25
2018-09-01T09:15:50.320Z,65.70
2018-09-01T09:18:19.088Z,64.84
2018-09-01T09:20:48.420Z,65.00
2018-09-01T09:23:17.161Z,64.52
2018-09-01T09:25:46.310Z,62.07
2018-09-01T09:28:15.322Z,62.11
2018-09-01T09:30:44.435Z,60.06
2018-09-01T09:33:13.508Z,58.93
2018-09-01T09:35:42.597Z,59.54
2018-09-01T09:38:11.381Z,60.16
2018-09-01T09:40:40.460Z,58.53
2018-09-01T09:43:09.291Z,59.36
2018-09-01T09:45:38.372Z,59.58
2018-09-01T09:48:07.109Z,60.40
2018-09-01T09:50:35.910Z,59.17
2018-09-01T09:53:04.767Z,57.98
2018-09-01T09:55:34.472Z,54.51
2018-09-01T09:58:03.592Z,55.12
2018-09-01T10:00:37.482Z,55.35
2018-09-01T10:03:06.272Z,56.30
2018-09-01T10:05:35.299Z,56.52
2018-09-01T10:08:04.065Z,56.55
2018-09-01T10:10:32.845Z,53.29
2018-09-01T10:13:01.629Z,53.22
2018-09-01T10:15:31.313Z,52.74
2018-09-01T10:18:00.433Z,52.11
2018-09-01T10:20:29.651Z,51.19
2018-09-01T10:22:58.889Z,49.08
2018-09-01T10:25:28.958Z,48.29
2018-09-01T10:27:57.970Z,49.55
2018-09-01T10:30:26.723Z,48.14
2018-09-01T10:32:55.788Z,49.59
2018-09-01T10:35:24.713Z,46.78
2018-09-01T10:37:53.524Z,46.52
2018-09-01T10:40:22.667Z,47.04
2018-09-01T10:42:51.680Z,44.59
2018-09-01T10:45:20.922Z,43.97
2018-09-01T10:47:49.685Z,45.30
2018-09-01T10:50:18.751Z,43.05
2018-09-01T10:52:47.796Z,43.99
2018-09-01T10:55:16.580Z,46.45
2018-09-01T10:57:45.321Z,44.22
2018-09-01T11:00:14.449Z,44.68
2018-09-01T11:02:43.259Z,42.61
2018-09-01T11:05:12.013Z,43.83
2018-09-01T11:07:41.051Z,43.87
2018-09-01T11:10:09.867Z,42.04
2018-09-01T11:12:38.931Z,41.94
2018-09-01T11:15:07.659Z,41.05
2018-09-01T11:17:36.491Z,41.32
2018-09-01T11:20:05.340Z,41.32
2018-09-01T11:22:34.719Z,39.91
2018-09-01T11:25:03.567Z,40.21
2018-09-01T11:27:32.601Z,41.27
2018-09-01T11:30:01.390Z,39.75
2018-09-01T11:32:30.107Z,40.15
2018-09-01T11:34:58.875Z,39.71
2018-09-01T11:37:27.828Z,41.06
2018-09-01T11:39:56.534Z,41.64
2018-09-01T11:42:25.323Z,41.57
2018-09-01T11:44:54.074Z,41.76
2018-09-01T11:47:23.125Z,43.66
2018-09-01T11:49:52.206Z,43.33
2018-09-01T11:52:21.563Z,43.92
2018-09-01T11:54:50.272Z,43.35
2018-09-01T11:57:19.363Z,44.40
2018-09-01T11:59:48.330Z,43.79
2018-09-01T12:02:17.511Z,42.48
2018-09-01T12:04:46.519Z,42.04
2018-09-01T12:07:15.340Z,40.22
2018-09-01T12:09:44.161Z,38.94
2018-09-01T12:12:12.909Z,40.37
2018-09-01T12:14:41.966Z,41.52
2018-09-01T12:17:10.710Z,39.76
2018-09-01T12:19:40.057Z,40.92
2018-09-01T12:22:09.067Z,39.41
2018-09-01T12:24:38.143Z,40.13
2018-09-01T12:27:07.437Z,41.02
2018-09-01T12:29:36.618Z,39.91
2018-09-01T12:32:05.864Z,40.62
2018-09-01T12:34:35.656Z,41.53
2018-09-01T12:37:04.712Z,40.23
2018-09-01T12:39:33.692Z,41.41
2018-09-01T12:42:03.270Z,42.45
2018-09-01T12:44:31.987Z,41.79
2018-09-01T12:47:00.986Z,42.39
2018-09-01T12:49:30.617Z,42.46
2018-09-01T12:51:59.854Z,42.53
2018-09-01T12:54:28.609Z,43.36
2018-09-01T12:56:57.646Z,42.94
2018-09-01T12:59:26.825Z,41.99
2018-09-01T13:01:55.565Z,41.00
2018-09-01T13:04:24.262Z,40.19
2018-09-01T13:06:53.381Z,39.57
2018-09-01T13:09:22.642Z,39.48
2018-09-01T13:11:51.362Z,38.94
2018-09-01T13:14:20.124Z,37.46
2018-09-01T13:16:49.096Z,38.50
2018-09-01T13:19:18.215Z,38.11
2018-09-01T13:21:47.025Z,38.38
2018-09-01T13:24:15.785Z,36.26
2018-09-01T13:26:44.519Z,36.70
2018-09-01T13:29:13.329Z,36.26
2018-09-01T13:31:42.788Z,36.14
2018-09-01T13:34:11.583Z,34.59
2018-09-01T13:36:40.333Z,35.70
2018-09-01T13:39:09.115Z,37.03
2018-09-01T13:41:37.835Z,34.58
2018-09-01T13:44:07.314Z,34.70
2018-09-01T13:46:36.352Z,35.96
2018-09-01T13:49:05.393Z,33.83
2018-09-01T13:51:34.483Z,33.87
2018-09-01T13:54:03.259Z,34.78
2018-09-01T13:56:31.967Z,34.09
2018-09-01T13:59:00.728Z,34.45
2018-09-01T14:01:29.787Z,34.40
2018-09-01T14:03:58.823Z,34.22
2018-09-01T14:06:28.264Z,35.93
2018-09-01T14:08:57.275Z,35.91
2018-09-01T14:11:26.686Z,34.24
2018-09-01T14:13:55.468Z,34.21
2018-09-01T14:16:24.899Z,35.18
2018-09-01T14:18:53.672Z,36.64
2018-09-01T14:21:22.382Z,35.91
2018-09-01T14:23:51.828Z,36.33
2018-09-01T14:26:21.054Z,37.24
2018-09-01T14:28:49.771Z,37.22
2018-09-01T14:31:19.053Z,36.71
2018-09-01T14:33:48.123Z,36.14
2018-09-01T14:36:17.172Z,35.47
2018-09-01T14:38:46.309Z,34.89
2018-09-01T14:41:15.091Z,35.29
2018-09-01T14:43:44.111Z,35.67
2018-09-01T14:46:13.293Z,34.93
2018-09-01T14:48:42.040Z,35.16
2018-09-01T14:51:10.803Z,35.15
2018-09-01T14:53:40.019Z,33.88
2018-09-01T14:56:08.940Z,34.50
2018-09-01T14:58:37.677Z,32.99
2018-09-01T15:01:06.442Z,33.52
2018-09-01T15:03:35.258Z,33.77
2018-09-01T15:06:04.029Z,33.08
2018-09-01T15:08:33.208Z,33.29
2018-09-01T15:11:02.293Z,34.08
2018-09-01T15:13:31.122Z,35.22
2018-09-01T15:16:00.274Z,34.38
2018-09-01T15:18:29.288Z,34.85
2018-09-01T15:20:58.641Z,37.41
2018-09-01T15:23:27.481Z,37.00
2018-09-01T15:25:56.206Z,37.46
2018-09-01T15:28:25.011Z,36.75
2018-09-01T15:30:54.018Z,38.25
2018-09-01T15:33:22.693Z,37.71
2018-09-01T15:35:51.450Z,38.80
2018-09-01T15:38:20.811Z,37.97
2018-09-01T15:40:49.892Z,38.63
2018-09-01T15:43:18.838Z,40.48
2018-09-01T15:45:47.608Z,38.58
2018-09-01T15:48:16.458Z,40.61
2018-09-01T15:50:45.635Z,41.30
2018-09-01T15:53:15.064Z,42.24
2018-09-01T15:55:44.185Z,43.35
2018-09-01T15:58:12.966Z,43.28
2018-09-01T16:00:41.676Z,44.23
2018-09-01T16:03:10.863Z,44.01
2018-09-01T16:05:39.916Z,45.75
2018-09-01T16:08:08.895Z,45.04
2018-09-01T16:10:37.623Z,44.44
2018-09-01T16:13:13.334Z,45.23
2018-09-01T16:15:42.349Z,44.96
2018-09-01T16:18:11.164Z,45.15
2018-09-01T16:20:40.212Z,44.45
2018-09-01T16:23:09.333Z,45.29
2018-09-01T16:25:38.715Z,46.25
2018-09-01T16:28:07.519Z,46.35
2018-09-01T16:30:36.317Z,46.38
2018-09-01T16:33:05.044Z,45.77
2018-09-01T16:35:33.760Z,45.52
2018-09-01T16:38:02.969Z,46.29
2018-09-01T16:40:31.982Z,45.89
2018-09-01T16:43:00.722Z,46.53
2018-09-01T16:45:30.405Z,46.64
2018-09-01T16:47:59.415Z,47.28
2018-09-01T16:50:28.458Z,48.16
2018-09-01T16:52:57.153Z,46.91
2018-09-01T16:55:26.492Z,47.32
2018-09-01T16:57:55.762Z,47.96
2018-09-01T17:00:24.539Z,47.96
2018-09-01T17:02:53.239Z,48.32
2018-09-01T17:05:21.961Z,48.62
2018-09-01T17:07:50.780Z,48.56
2018-09-01T17:10:20.154Z,49.54
2018-09-01T17:12:49.343Z,49.83
2018-09-01T17:15:18.598Z,50.10
2018-09-01T17:17:47.855Z,50.04
2018-09-01T17:20:17.147Z,50.46
2018-09-01T17:22:46.511Z,50.69
2018-09-01T17:25:15.604Z,50.65
2018-09-01T17:27:44.617Z,50.67
2018-09-01T17:30:13.638Z,50.80
2018-09-01T17:32:42.878Z,50.71
2018-09-01T17:35:12.103Z,51.34
2018-09-01T17:37:41.270Z,51.44
2018-09-01T17:40:10.321Z,51.62
2018-09-01T17:42:39.400Z,51.42
2018-09-01T17:45:08.758Z,51.99
2018-09-01T17:47:37.436Z,52.50
2018-09-01T17:50:06.561Z,52.71
2018-09-01T17:52:36.015Z,52.49
2018-09-01T17:55:05.498Z,52.53
2018-09-01T17:57:34.579Z,53.23
2018-09-01T18:00:03.809Z,53.18
2018-09-01T18:02:32.624Z,53.24
2018-09-01T18:05:01.384Z,53.95
2018-09-01T18:07:30.099Z,53.72
2018-09-01T18:09:59.370Z,53.57
2018-09-01T18:12:28.417Z,54.67
2018-09-01T18:14:57.161Z,54.74
2018-09-01T18:17:26.070Z,54.49
2018-09-01T18:19:54.803Z,54.58
2018-09-01T18:22:23.601Z,55.22
2018-09-01T18:24:52.305Z,54.69
2018-09-01T18:27:21.358Z,54.76
2018-09-01T18:29:50.342Z,54.90
2018-09-01T18:32:19.112Z,55.22
2018-09-01T18:34:48.146Z,56.12
2018-09-01T18:37:16.830Z,56.73
2018-09-01T18:39:45.646Z,56.08
2018-09-01T18:42:14.834Z,56.17
2018-09-01T18:44:43.887Z,56.49
2018-09-01T18:47:12.677Z,57.37
2018-09-01T18:49:42.068Z,57.45
2018-09-01T18:52:10.875Z,57.24
2018-09-01T18:54:40.063Z,57.00
2018-09-01T18:57:09.175Z,56.99
2018-09-01T18:59:38.257Z,57.32
2018-09-01T19:02:07.027Z,57.46
2018-09-01T19:04:35.758Z,57.82
2018-09-01T19:07:04.462Z,57.85
2018-09-01T19:09:33.237Z,58.53
2018-09-01T19:12:02.202Z,58.85
2018-09-01T19:14:32.096Z,59.02
2018-09-01T19:17:01.054Z,59.60
2018-09-01T19:19:29.865Z,59.31
2018-09-01T19:21:58.752Z,60.20
2018-09-01T19:24:27.631Z,60.92
2018-09-01T19:26:56.695Z,61.14
2018-09-01T19:29:26.185Z,61.25
2018-09-01T19:31:57.927Z,61.65
2018-09-01T19:34:27.130Z,62.71
2018-09-01T19:36:55.853Z,62.82
2018-09-01T19:39:24.629Z,63.44
2018-09-01T19:41:53.976Z,63.76
2018-09-01T19:44:22.699Z,64.16
2018-09-01T19:46:51.711Z,64.94
2018-09-01T19:49:20.494Z,64.83
2018-09-01T19:51:49.245Z,65.08
2018-09-01T19:54:18.260Z,66.10
2018-09-01T19:56:46.952Z,66.27
2018-09-01T19:59:15.778Z,66.99
2018-09-01T20:01:44.907Z,67.40
2018-09-01T20:04:13.945Z,67.66
2018-09-01T20:06:42.798Z,68.31
2018-09-01T20:09:11.547Z,68.57
2018-09-01T20:11:40.603Z,69.36
2018-09-01T20:14:09.948Z,69.53
2018-09-01T20:16:38.637Z,69.36
2018-09-01T20:19:07.387Z,70.44
2018-09-01T20:21:36.187Z,70.23
2018-09-01T20:24:05.120Z,70.29
2018-09-01T20:26:34.162Z,71.01
2018-09-01T20:29:02.920Z,71.06
2018-09-01T20:31:32.191Z,71.63
2018-09-01T20:34:02.106Z,71.79
2018-09-01T20:36:31.167Z,72.80
2018-09-01T20:39:00.250Z,73.30
2018-09-01T20:41:29.247Z,74.12
2018-09-01T20:43:58.783Z,74.28
2018-09-01T20:46:27.482Z,74.42
2018-09-01T20:48:56.635Z,75.03
2018-09-01T20:51:25.830Z,75.11
2018-09-01T20:53:55.211Z,75.59
2018-09-01T20:56:24.323Z,76.01
2018-09-01T20:58:53.213Z,75.96
2018-09-01T21:01:21.953Z,76.45
2018-09-01T21:03:50.985Z,76.83
2018-09-01T21:06:20.148Z,76.72
2018-09-01T21:08:48.913Z,76.80
2018-09-01T21:11:18.090Z,77.19
2018-09-01T21:13:47.038Z,77.57
2018-09-01T21:16:16.081Z,78.33
2018-09-01T21:18:45.209Z,78.81
2018-09-01T21:21:15.179Z,79.09
2018-09-01T21:23:43.910Z,79.18
2018-09-01T21:26:13.004Z,79.15
2018-09-01T21:28:42.445Z,79.59
2018-09-01T21:31:11.293Z,80.12
2018-09-01T21:33:40.068Z,80.59
2018-09-01T21:36:09.979Z,80.52
2018-09-01T21:38:38.866Z,80.63
2018-09-01T21:41:07.665Z,80.47
2018-09-01T21:43:37.114Z,80.45
2018-09-01T21:46:06.005Z,81.20
2018-09-01T21:48:35.080Z,81.50
2018-09-01T21:51:04.489Z,81.71
2018-09-01T21:53:33.242Z,81.87
2018-09-01T21:56:02.439Z,81.66
2018-09-01T21:58:31.868Z,81.66
2018-09-01T22:01:05.902Z,81.61
2018-09-01T22:03:39.298Z,82.43
2018-09-01T22:06:08.143Z,82.30
2018-09-01T22:08:37.167Z,82.39
2018-09-01T22:11:06.012Z,82.78
2018-09-01T22:13:34.854Z,83.25
2018-09-01T22:16:03.611Z,83.24
2018-09-01T22:18:32.463Z,83.33
2018-09-01T22:21:01.247Z,84.24
2018-09-01T22:23:30.133Z,84.31
2018-09-01T22:25:59.138Z,84.34
2018-09-01T22:28:27.862Z,84.58
2018-09-01T22:30:56.958Z,84.01
2018-09-01T22:33:26.535Z,84.09
2018-09-01T22:35:55.367Z,84.63
2018-09-01T22:38:24.130Z,84.13
2018-09-01T22:40:54.034Z,84.99
2018-09-01T22:43:23.233Z,84.58
2018-09-01T22:45:52.414Z,85.00
2018-09-01T22:48:21.629Z,84.80
2018-09-01T22:50:50.390Z,84.49
2018-09-01T22:53:19.267Z,84.70
2018-09-01T22:55:48.284Z,84.95
2018-09-01T22:58:17.084Z,85.44
2018-09-01T23:00:46.281Z,85.28
2018-09-01T23:03:15.202Z,85.42
2018-09-01T23:05:43.989Z,85.33
2018-09-01T23:10:52.642Z,85.40
2018-09-01T23:13:21.937Z,85.80
2018-09-01T23:15:50.683Z,85.06
2018-09-01T23:18:19.441Z,85.23
2018-09-01T23:20:48.755Z,85.65
2018-09-01T23:23:17.806Z,85.58
2018-09-01T23:25:46.534Z,85.56
2018-09-01T23:28:15.323Z,85.57
2018-09-01T23:30:44.086Z,85.57
2018-09-01T23:33:13.002Z,86.11
2018-09-01T23:35:41.732Z,86.26
2018-09-01T23:38:10.529Z,87.10
2018-09-01T23:40:40.066Z,87.21
2018-09-01T23:43:08.818Z,87.32
2018-09-01T23:45:37.925Z,88.21
2018-09-01T23:48:07.031Z,88.41
2018-09-01T23:50:36.095Z,88.82
2018-09-01T23:53:05.006Z,88.98
2018-09-01T23:55:34.091Z,88.87
2018-09-01T23:58:03.220Z,89.28
